Terminal Aerodrome Forecast
Issued by NWS Jackson, MS

Home | Current Version | Previous Version | Text Only | Print | Product List | Glossary On
Versions: 1 2 3 4 5 6 7 8 9 10 11 12 13 14 15 16 17 18 19 20 21 22
000
FTUS44 KMEG 281746 CCA
TAFTUP
TAF COR
KTUP 281746Z 2818/2918 01004KT P6SM SCT025 BKN035
      TEMPO 2818/2819 BKN025
     FM282100 03005KT P6SM SCT035 SCT200
     FM290000 06004KT P6SM SCT040 BKN150
     FM290500 09006KT 6SM BR BKN015
     FM291400 20007KT P6SM OVC050=

USA.gov is the U.S. government's official web portal to all federal, state and local government web resources and services.